Time;durP1;ratioP1;P1;durP2;ratioP2;P2;SDS_P1;SDS_P2;PMS_P1;PMS_P2;Temp;Humidity;BMP_temperature;BMP_pressure;BME280_temperature;BME280_humidity;BME280_pressure;Samples;Min_cycle;Max_cycle;Signal;HPM_P1;HPM_P2
2020/12/08 00:01:52;;;;;;;0.98;0.70;;;23.10;28.40;;;;;;5076855;28;20025;-70
2020/12/08 00:04:18;;;;;;;2.72;0.70;;;23.10;28.90;;;;;;5074192;28;20017;-70
2020/12/08 00:06:45;;;;;;;9.88;1.30;;;23.00;29.10;;;;;;5068018;28;20077;-70
2020/12/08 00:09:11;;;;;;;6.60;1.00;;;23.00;28.80;;;;;;5076768;28;20070;-70
2020/12/08 00:11:38;;;;;;;6.55;1.13;;;22.80;28.40;;;;;;5075219;28;20032;-69
2020/12/08 00:14:04;;;;;;;11.10;1.02;;;22.70;28.40;;;;;;5071204;28;20029;-71
2020/12/08 00:16:31;;;;;;;6.22;0.80;;;22.60;28.30;;;;;;5066891;28;20324;-71
2020/12/08 00:18:57;;;;;;;1.67;0.90;;;22.60;28.80;;;;;;5070035;28;20029;-71
2020/12/08 00:21:23;;;;;;;7.03;1.05;;;22.50;29.60;;;;;;5071397;28;20032;-70
2020/12/08 00:23:50;;;;;;;6.65;0.95;;;22.40;29.80;;;;;;5065787;28;20066;-70
2020/12/08 00:26:16;;;;;;;4.55;1.33;;;22.20;28.80;;;;;;5069642;28;20108;-71
2020/12/08 00:28:43;;;;;;;4.70;1.13;;;22.20;29.50;;;;;;5073231;28;20050;-70
2020/12/08 00:31:10;;;;;;;5.38;1.08;;;22.00;29.80;;;;;;5073083;28;20026;-69
2020/12/08 00:33:36;;;;;;;12.10;1.35;;;21.90;30.10;;;;;;5069883;28;20108;-69
2020/12/08 00:36:03;;;;;;;13.52;1.77;;;21.90;30.00;;;;;;5075033;28;20035;-70
2020/12/08 00:38:29;;;;;;;11.10;1.88;;;21.80;30.00;;;;;;5072195;28;20028;-69
2020/12/08 00:40:56;;;;;;;6.70;2.30;;;21.60;30.00;;;;;;5067324;28;20097;-70
2020/12/08 00:43:22;;;;;;;6.65;1.55;;;21.40;30.60;;;;;;5065516;28;20116;-70
2020/12/08 00:45:49;;;;;;;3.15;1.48;;;21.20;30.00;;;;;;5069430;28;20455;-70
2020/12/08 00:48:15;;;;;;;7.50;1.38;;;20.90;30.50;;;;;;5063321;28;20031;-70
2020/12/08 00:50:42;;;;;;;2.60;1.20;;;20.70;30.60;;;;;;5065570;28;20100;-71
2020/12/08 00:53:08;;;;;;;8.75;1.23;;;20.50;31.20;;;;;;5067276;28;20021;-70
2020/12/08 00:55:35;;;;;;;3.72;1.00;;;20.20;31.00;;;;;;5074038;28;20477;-69
2020/12/08 00:58:02;;;;;;;5.93;0.98;;;20.00;32.30;;;;;;5077518;28;20111;-69
2020/12/08 01:00:28;;;;;;;7.82;1.33;;;19.90;31.50;;;;;;5081700;28;20350;-70
2020/12/08 01:02:55;;;;;;;4.85;1.35;;;19.50;31.80;;;;;;5073880;28;20063;-69
2020/12/08 01:05:22;;;;;;;5.65;1.38;;;19.30;31.70;;;;;;5071359;28;20016;-69
2020/12/08 01:07:49;;;;;;;32.28;2.83;;;19.20;32.00;;;;;;5065869;28;20077;-69
2020/12/08 01:10:16;;;;;;;1.63;1.23;;;19.00;32.30;;;;;;5070039;28;20073;-69
2020/12/08 01:12:42;;;;;;;1.70;1.17;;;18.80;32.50;;;;;;5076852;28;20050;-69
2020/12/08 01:15:09;;;;;;;5.15;1.67;;;18.60;32.40;;;;;;5086703;28;20029;-70
2020/12/08 01:17:35;;;;;;;4.90;1.75;;;18.50;32.60;;;;;;5067293;28;20082;-69
2020/12/08 01:20:05;;;;;;;7.75;1.85;;;18.40;32.50;;;;;;5063178;28;20489;-70
2020/12/08 01:22:31;;;;;;;7.57;1.35;;;18.30;33.00;;;;;;5063237;28;20382;-70
2020/12/08 01:24:58;;;;;;;5.82;1.20;;;18.30;32.90;;;;;;5069929;28;20040;-69
2020/12/08 01:27:24;;;;;;;7.75;1.40;;;18.20;32.80;;;;;;5064321;28;20033;-69
2020/12/08 01:29:51;;;;;;;5.20;1.17;;;18.10;33.10;;;;;;5073939;28;20111;-69
2020/12/08 01:32:17;;;;;;;8.68;1.92;;;18.00;33.10;;;;;;5085756;28;20377;-69
2020/12/08 01:34:44;;;;;;;4.60;1.48;;;17.90;33.40;;;;;;5077242;28;20044;-69
2020/12/08 01:37:10;;;;;;;3.15;1.10;;;17.80;33.10;;;;;;5076606;28;20502;-69
2020/12/08 01:39:36;;;;;;;9.13;2.33;;;17.80;33.20;;;;;;5071812;28;20028;-69
2020/12/08 01:42:03;;;;;;;17.00;1.63;;;17.70;33.00;;;;;;5078822;28;20025;-69
2020/12/08 01:44:29;;;;;;;11.82;1.90;;;17.60;32.90;;;;;;5075471;28;20390;-70
2020/12/08 01:46:56;;;;;;;4.97;1.95;;;17.60;33.20;;;;;;5079864;28;20046;-69
2020/12/08 01:49:23;;;;;;;5.10;1.75;;;17.50;33.20;;;;;;5086535;28;20070;-69
2020/12/08 01:51:50;;;;;;;6.05;1.88;;;17.60;33.00;;;;;;5077018;28;20025;-69
2020/12/08 01:54:17;;;;;;;7.72;2.00;;;17.60;32.80;;;;;;5081845;28;20028;-69
2020/12/08 01:56:44;;;;;;;13.75;2.10;;;17.50;33.00;;;;;;5082512;28;20024;-70
2020/12/08 01:59:10;;;;;;;8.27;2.15;;;17.50;33.00;;;;;;5075056;28;20066;-69
2020/12/08 02:01:37;;;;;;;5.60;1.55;;;17.40;33.10;;;;;;5078230;28;20039;-69
2020/12/08 02:04:03;;;;;;;8.88;1.65;;;17.40;33.00;;;;;;5080060;28;20035;-69
2020/12/08 02:06:30;;;;;;;6.05;1.58;;;17.30;33.20;;;;;;5082639;28;20468;-69
2020/12/08 02:08:57;;;;;;;6.05;1.80;;;17.20;33.60;;;;;;5081367;28;20036;-69
2020/12/08 02:11:23;;;;;;;4.50;1.60;;;17.10;33.70;;;;;;5077302;28;20028;-69
2020/12/08 02:13:50;;;;;;;5.47;1.10;;;17.10;33.90;;;;;;5072962;28;20374;-68
2020/12/08 02:16:20;;;;;;;4.47;1.30;;;17.00;33.90;;;;;;5080640;28;20127;-69
2020/12/08 02:18:47;;;;;;;4.43;2.13;;;16.80;33.90;;;;;;5068127;28;20550;-69
2020/12/08 02:21:13;;;;;;;4.15;1.60;;;16.80;34.40;;;;;;5069873;28;20056;-69
2020/12/08 02:23:49;;;;;;;6.90;2.47;;;17.00;33.80;;;;;;5079348;28;20013;-68
2020/12/08 02:26:16;;;;;;;4.38;1.80;;;17.10;33.60;;;;;;5081364;28;20054;-69
2020/12/08 02:28:42;;;;;;;4.40;2.05;;;17.10;33.30;;;;;;5077670;28;20095;-69
2020/12/08 02:31:09;;;;;;;3.58;1.98;;;17.10;33.30;;;;;;5086974;28;20028;-69
2020/12/08 02:33:35;;;;;;;8.48;2.15;;;17.20;33.20;;;;;;5091039;28;20117;-69
2020/12/08 02:36:01;;;;;;;5.47;1.92;;;17.10;33.30;;;;;;5078723;28;20461;-69
2020/12/08 02:38:28;;;;;;;7.65;1.73;;;17.00;33.40;;;;;;5069358;28;20358;-69
2020/12/08 02:40:55;;;;;;;2.72;1.50;;;17.00;33.30;;;;;;5074431;28;20021;-69
2020/12/08 02:43:23;;;;;;;7.10;2.65;;;17.00;33.20;;;;;;5075319;28;20032;-69
2020/12/08 02:45:50;;;;;;;7.00;1.45;;;16.90;33.50;;;;;;5066294;28;20020;-69
2020/12/08 02:48:17;;;;;;;7.47;1.67;;;16.90;33.50;;;;;;5080816;28;20372;-69
2020/12/08 02:50:44;;;;;;;10.90;2.00;;;16.70;33.70;;;;;;5076419;28;20040;-69
2020/12/08 02:53:10;;;;;;;5.32;1.92;;;16.70;33.80;;;;;;5093117;28;20125;-69
2020/12/08 02:55:36;;;;;;;7.78;2.55;;;16.40;34.10;;;;;;5078940;28;20103;-69
2020/12/08 02:58:03;;;;;;;4.22;1.95;;;16.40;34.30;;;;;;5077058;28;20085;-69
2020/12/08 03:00:30;;;;;;;5.72;2.55;;;16.30;34.60;;;;;;5074174;28;20043;-69
2020/12/08 03:02:56;;;;;;;7.20;2.22;;;16.20;34.70;;;;;;5080178;28;20028;-69
2020/12/08 03:05:23;;;;;;;4.45;2.58;;;16.20;34.90;;;;;;5077839;28;20066;-69
2020/12/08 03:07:49;;;;;;;3.78;2.15;;;16.10;34.90;;;;;;5073889;28;20021;-69
2020/12/08 03:10:15;;;;;;;3.63;1.67;;;16.20;35.10;;;;;;5080722;28;20025;-69
2020/12/08 03:12:43;;;;;;;6.70;2.45;;;16.20;34.70;;;;;;5087163;28;20091;-68
2020/12/08 03:15:09;;;;;;;8.65;2.28;;;16.20;34.70;;;;;;5089292;28;20039;-69
2020/12/08 03:17:36;;;;;;;5.63;3.08;;;16.00;34.80;;;;;;5069531;28;20040;-69
2020/12/08 03:20:02;;;;;;;8.10;2.20;;;15.90;34.90;;;;;;5072540;28;20060;-69
2020/12/08 03:22:29;;;;;;;3.58;1.70;;;15.90;35.00;;;;;;5076816;28;20359;-69
2020/12/08 03:24:55;;;;;;;3.58;1.73;;;15.90;35.00;;;;;;5077899;28;20044;-69
2020/12/08 03:27:22;;;;;;;6.03;1.92;;;16.00;34.60;;;;;;5071608;28;20373;-69
2020/12/08 03:29:49;;;;;;;12.02;2.58;;;16.00;34.70;;;;;;5082026;28;20099;-69
2020/12/08 03:32:15;;;;;;;6.25;2.30;;;16.00;34.70;;;;;;5074056;28;20109;-69
2020/12/08 03:34:41;;;;;;;9.43;2.28;;;16.10;34.90;;;;;;5072139;28;20089;-70
2020/12/08 03:37:08;;;;;;;4.47;2.00;;;16.20;34.70;;;;;;5068458;28;20362;-69
2020/12/08 03:39:34;;;;;;;4.93;1.95;;;16.10;34.80;;;;;;5074557;28;20093;-68
2020/12/08 03:42:04;;;;;;;2.17;1.50;;;16.00;34.80;;;;;;5077529;28;20036;-69
2020/12/08 03:44:32;;;;;;;3.50;1.70;;;16.00;34.70;;;;;;5068645;28;20070;-69
2020/12/08 03:47:04;;;;;;;8.30;1.77;;;16.00;34.60;;;;;;5083240;28;20089;-69
2020/12/08 03:49:31;;;;;;;4.07;1.77;;;15.90;34.80;;;;;;5083910;28;20033;-69
2020/12/08 03:51:58;;;;;;;4.35;2.20;;;15.90;35.00;;;;;;5070795;28;20050;-69
2020/12/08 03:54:24;;;;;;;5.03;2.30;;;15.80;35.30;;;;;;5089806;28;20461;-69
2020/12/08 03:56:51;;;;;;;5.28;2.05;;;15.70;35.30;;;;;;5086082;28;20033;-69
2020/12/08 03:59:18;;;;;;;4.07;2.22;;;15.60;35.40;;;;;;5071854;28;20021;-69
2020/12/08 04:01:51;;;;;;;5.28;2.10;;;15.50;35.80;;;;;;5081269;28;20035;-70
2020/12/08 04:04:21;;;;;;;4.93;2.17;;;15.50;35.80;;;;;;5069293;28;20032;-70
2020/12/08 04:06:48;;;;;;;6.03;2.53;;;15.50;35.80;;;;;;5068639;28;20025;-70
2020/12/08 04:09:15;;;;;;;5.63;2.10;;;15.40;35.90;;;;;;5070653;28;20028;-69
2020/12/08 04:11:42;;;;;;;8.88;2.42;;;15.20;36.30;;;;;;5067112;28;20107;-70
2020/12/08 04:14:08;;;;;;;4.07;1.65;;;15.10;36.40;;;;;;5073222;28;20028;-69
2020/12/08 04:16:38;;;;;;;4.78;1.65;;;15.00;36.80;;;;;;5076732;28;20029;-70
2020/12/08 04:19:05;;;;;;;22.23;5.20;;;14.90;37.10;;;;;;5071826;28;20028;-69
2020/12/08 04:21:33;;;;;;;13.05;3.03;;;14.90;36.70;;;;;;5067922;28;20067;-70
2020/12/08 04:24:00;;;;;;;1.88;1.60;;;14.90;36.80;;;;;;5065287;28;20028;-69
2020/12/08 04:26:29;;;;;;;2.42;1.92;;;14.80;37.00;;;;;;5073965;28;20044;-70
2020/12/08 04:28:55;;;;;;;8.32;2.90;;;15.00;36.60;;;;;;5076184;28;20107;-70
2020/12/08 04:31:22;;;;;;;5.70;2.03;;;14.90;36.50;;;;;;5075466;28;20038;-70
2020/12/08 04:33:49;;;;;;;3.88;2.72;;;15.10;36.50;;;;;;5064422;28;20029;-72
2020/12/08 04:36:17;;;;;;;4.03;2.17;;;15.20;36.10;;;;;;5068458;28;20155;-70
2020/12/08 04:38:44;;;;;;;5.47;2.00;;;15.40;35.80;;;;;;5090560;28;20123;-70
2020/12/08 04:41:12;;;;;;;5.05;2.20;;;15.50;35.60;;;;;;5076877;28;20494;-70
2020/12/08 04:43:41;;;;;;;4.20;1.85;;;15.40;36.10;;;;;;5071454;28;20120;-69
2020/12/08 04:46:11;;;;;;;7.50;2.08;;;15.30;35.70;;;;;;5064314;28;20876;-69
2020/12/08 04:48:38;;;;;;;2.78;2.00;;;15.20;35.90;;;;;;5068522;28;20075;-69
2020/12/08 04:51:06;;;;;;;1.83;1.70;;;15.20;35.90;;;;;;5064730;28;20028;-70
2020/12/08 04:53:33;;;;;;;2.03;1.60;;;15.10;35.90;;;;;;5069640;28;20020;-70
2020/12/08 04:55:59;;;;;;;2.60;2.22;;;15.00;36.20;;;;;;5066967;28;20094;-70
2020/12/08 04:58:26;;;;;;;4.40;2.20;;;15.30;35.80;;;;;;5060179;28;20021;-69
2020/12/08 05:00:52;;;;;;;6.50;2.00;;;15.40;35.60;;;;;;5073418;28;20071;-70
2020/12/08 05:03:23;;;;;;;4.05;2.30;;;15.50;35.60;;;;;;5063644;28;20028;-70
2020/12/08 05:05:50;;;;;;;6.22;2.60;;;15.40;35.50;;;;;;5065235;28;20025;-70
2020/12/08 05:08:17;;;;;;;6.72;2.78;;;15.30;35.80;;;;;;5068236;28;20043;-70
2020/12/08 05:10:46;;;;;;;6.20;2.53;;;15.30;35.70;;;;;;5065193;28;20024;-69
2020/12/08 05:13:26;;;;;;;6.03;2.42;;;15.30;35.80;;;;;;5066030;28;20025;-69
2020/12/08 05:16:02;;;;;;;3.35;1.85;;;15.20;35.80;;;;;;5063421;28;20049;-70
2020/12/08 05:18:31;;;;;;;4.28;2.30;;;15.40;35.80;;;;;;5066710;28;20024;-69
2020/12/08 05:21:11;;;;;;;11.25;2.05;;;15.40;35.60;;;;;;5061817;28;20039;-70
2020/12/08 05:23:55;;;;;;;4.07;2.00;;;15.20;35.70;;;;;;5071472;28;20033;-68
2020/12/08 05:26:22;;;;;;;12.35;2.63;;;15.10;36.00;;;;;;5064023;28;20435;-69
2020/12/08 05:28:59;;;;;;;5.60;1.80;;;15.10;36.10;;;;;;5064445;28;20143;-68
2020/12/08 05:31:27;;;;;;;8.80;2.88;;;15.00;36.30;;;;;;5080953;28;20081;-68
2020/12/08 05:33:59;;;;;;;6.50;1.90;;;15.00;36.30;;;;;;5074324;28;20036;-68
2020/12/08 05:36:28;;;;;;;3.70;1.77;;;15.00;36.20;;;;;;5075054;28;20123;-68
2020/12/08 05:39:00;;;;;;;6.97;2.47;;;15.10;35.90;;;;;;5074390;28;20025;-68
2020/12/08 05:41:31;;;;;;;2.80;2.17;;;15.30;35.70;;;;;;5081380;28;20036;-68
2020/12/08 05:44:05;;;;;;;5.40;1.88;;;15.20;35.70;;;;;;5074800;28;20025;-68
2020/12/08 05:46:44;;;;;;;5.57;1.60;;;15.30;35.60;;;;;;5074616;28;20074;-68
2020/12/08 05:49:20;;;;;;;4.95;2.17;;;15.30;35.50;;;;;;5075183;28;20082;-68
2020/12/08 05:51:49;;;;;;;2.80;1.70;;;15.40;35.50;;;;;;5072007;28;20031;-68
2020/12/08 05:54:19;;;;;;;3.35;2.70;;;15.40;35.40;;;;;;5073143;28;20407;-68
2020/12/08 05:56:53;;;;;;;7.85;2.13;;;15.50;35.20;;;;;;5068656;28;20037;-68
2020/12/08 05:59:29;;;;;;;2.00;1.38;;;15.50;35.80;;;;;;5060749;28;20024;-68
2020/12/08 06:01:56;;;;;;;2.38;1.58;;;15.50;35.30;;;;;;5068387;28;20343;-68
2020/12/08 06:04:23;;;;;;;2.83;1.40;;;15.50;35.30;;;;;;5069802;28;20021;-68
2020/12/08 06:06:56;;;;;;;3.33;2.28;;;15.50;35.20;;;;;;5064428;28;20024;-68
2020/12/08 06:09:30;;;;;;;3.55;1.40;;;15.50;35.40;;;;;;5073389;28;20107;-68
2020/12/08 06:11:57;;;;;;;6.03;1.83;;;15.50;35.40;;;;;;5068141;28;20339;-68
2020/12/08 06:14:34;;;;;;;2.13;1.63;;;15.10;35.80;;;;;;5071177;28;20099;-68
2020/12/08 06:17:07;;;;;;;3.40;1.30;;;15.20;35.80;;;;;;5061293;28;20064;-69
2020/12/08 06:19:35;;;;;;;2.00;1.55;;;15.40;35.10;;;;;;5066506;28;20035;-69
2020/12/08 06:22:11;;;;;;;2.45;1.50;;;15.50;35.20;;;;;;5070988;28;20107;-69
2020/12/08 06:24:58;;;;;;;2.38;1.75;;;15.50;35.00;;;;;;5070610;28;20411;-68
2020/12/08 06:27:25;;;;;;;8.45;1.33;;;15.60;34.90;;;;;;5068194;28;20021;-69
2020/12/08 06:29:55;;;;;;;2.40;1.20;;;15.60;35.20;;;;;;5053833;28;20025;-69
2020/12/08 06:32:31;;;;;;;5.80;1.60;;;15.60;35.20;;;;;;5055340;28;20041;-68
2020/12/08 06:35:06;;;;;;;6.97;1.27;;;15.50;35.10;;;;;;5061682;28;20048;-68
2020/12/08 06:37:34;;;;;;;6.40;1.23;;;15.50;35.20;;;;;;5064068;28;20036;-68
2020/12/08 06:40:12;;;;;;;5.35;1.15;;;15.50;34.90;;;;;;5074863;28;20362;-68
2020/12/08 06:42:39;;;;;;;3.53;1.50;;;15.60;34.60;;;;;;5073649;28;20086;-68
2020/12/08 06:45:20;;;;;;;2.05;1.30;;;15.80;34.50;;;;;;5074121;28;20500;-68
2020/12/08 06:47:48;;;;;;;6.28;2.00;;;15.70;34.50;;;;;;5076724;28;20024;-68
2020/12/08 06:50:22;;;;;;;2.40;1.38;;;15.60;34.70;;;;;;5074611;28;20038;-68
2020/12/08 06:53:00;;;;;;;3.80;1.45;;;15.50;35.20;;;;;;5071435;28;20032;-68
2020/12/08 06:55:29;;;;;;;4.32;1.83;;;15.30;35.40;;;;;;5069961;28;20118;-68
2020/12/08 06:58:05;;;;;;;7.97;1.77;;;15.30;35.20;;;;;;5073418;28;20021;-68
2020/12/08 07:00:32;;;;;;;3.20;1.40;;;15.40;34.90;;;;;;5073104;28;20355;-68
2020/12/08 07:03:00;;;;;;;1.48;1.38;;;15.50;34.50;;;;;;5072221;28;20135;-68
2020/12/08 07:05:29;;;;;;;1.88;1.17;;;15.50;34.50;;;;;;5067393;28;20100;-68
2020/12/08 07:08:02;;;;;;;4.63;1.88;;;15.60;34.40;;;;;;5063920;28;20331;-68
2020/12/08 07:10:29;;;;;;;1.92;1.50;;;15.60;34.30;;;;;;5059829;28;20351;-68
2020/12/08 07:12:57;;;;;;;1.92;1.25;;;15.60;34.30;;;;;;5073449;28;20082;-68
2020/12/08 07:15:27;;;;;;;4.68;1.27;;;15.70;34.20;;;;;;5071058;28;20031;-68
2020/12/08 07:17:58;;;;;;;1.45;1.10;;;15.70;34.40;;;;;;5067509;28;20024;-68
2020/12/08 07:20:26;;;;;;;3.33;1.33;;;15.50;34.90;;;;;;5071414;28;20032;-68
2020/12/08 07:22:53;;;;;;;3.17;1.40;;;15.60;34.60;;;;;;5079498;28;20047;-68
2020/12/08 07:25:22;;;;;;;1.10;1.00;;;15.60;34.90;;;;;;5074700;28;20016;-68
2020/12/08 07:27:53;;;;;;;7.20;1.83;;;15.30;35.20;;;;;;5067758;28;20036;-68
2020/12/08 07:30:22;;;;;;;4.38;1.30;;;15.10;36.00;;;;;;5071600;28;20017;-68
2020/12/08 07:32:49;;;;;;;3.05;1.27;;;15.00;35.90;;;;;;5071050;28;20425;-68
2020/12/08 07:35:21;;;;;;;5.97;1.27;;;15.00;36.00;;;;;;5073136;28;20374;-68
2020/12/08 07:37:48;;;;;;;1.35;1.23;;;15.30;35.20;;;;;;5068716;28;20064;-68
2020/12/08 07:40:15;;;;;;;1.52;1.42;;;15.20;35.40;;;;;;5061319;28;20037;-68
2020/12/08 07:42:52;;;;;;;5.82;1.00;;;15.00;35.80;;;;;;5059804;28;20095;-68
2020/12/08 07:45:19;;;;;;;2.28;1.25;;;15.00;35.60;;;;;;5067981;28;20025;-68
2020/12/08 07:47:55;;;;;;;4.43;1.80;;;14.70;35.90;;;;;;5070492;28;20024;-68
2020/12/08 07:50:23;;;;;;;1.63;1.52;;;14.70;36.00;;;;;;5078880;28;20086;-68
2020/12/08 07:53:03;;;;;;;2.00;0.93;;;15.10;35.40;;;;;;5077240;28;20016;-68
2020/12/08 07:55:36;;;;;;;1.50;1.40;;;14.90;35.60;;;;;;5087537;28;20082;-68
2020/12/08 07:58:03;;;;;;;1.40;1.30;;;14.90;35.70;;;;;;5074613;28;20445;-68
2020/12/08 08:00:30;;;;;;;1.30;1.20;;;15.00;35.60;;;;;;5074001;28;20028;-68
2020/12/08 08:02:57;;;;;;;2.38;1.30;;;15.00;35.60;;;;;;5073008;28;20028;-67
2020/12/08 08:05:24;;;;;;;4.07;1.25;;;15.00;35.60;;;;;;5068497;28;20175;-68
2020/12/08 08:07:50;;;;;;;6.50;1.50;;;15.00;35.70;;;;;;5078056;28;20070;-68
2020/12/08 08:10:16;;;;;;;1.90;1.80;;;15.00;35.60;;;;;;5064179;28;20043;-68
2020/12/08 08:12:43;;;;;;;5.75;1.63;;;15.00;35.40;;;;;;5077574;28;20024;-68
2020/12/08 08:15:10;;;;;;;3.42;1.17;;;15.20;35.20;;;;;;5077318;28;20109;-68
2020/12/08 08:17:36;;;;;;;2.65;1.20;;;15.20;35.10;;;;;;5067759;28;20021;-68
2020/12/08 08:20:04;;;;;;;1.98;1.33;;;15.10;35.40;;;;;;5082682;28;20020;-68
2020/12/08 08:22:30;;;;;;;6.78;1.45;;;15.10;35.60;;;;;;5075650;28;20358;-68
2020/12/08 08:24:57;;;;;;;5.38;1.40;;;15.20;35.30;;;;;;5078062;28;20035;-68
2020/12/08 08:27:23;;;;;;;1.33;1.20;;;15.30;35.30;;;;;;5076947;28;20044;-68
2020/12/08 08:29:50;;;;;;;4.10;1.35;;;15.10;35.40;;;;;;5074511;28;20044;-68
2020/12/08 08:32:16;;;;;;;6.60;1.30;;;15.20;35.30;;;;;;5071624;28;20033;-68
2020/12/08 08:34:43;;;;;;;1.60;1.33;;;15.20;35.20;;;;;;5075084;28;20040;-68
2020/12/08 08:37:09;;;;;;;3.42;1.20;;;15.20;35.20;;;;;;5075292;28;20097;-68
2020/12/08 08:39:35;;;;;;;1.38;1.10;;;14.90;35.50;;;;;;5082065;28;20017;-68
2020/12/08 08:42:02;;;;;;;1.38;1.27;;;14.60;36.00;;;;;;5088412;28;20040;-68
2020/12/08 08:44:28;;;;;;;4.70;2.10;;;14.60;36.30;;;;;;5075401;28;20390;-68
2020/12/08 08:46:55;;;;;;;2.17;1.45;;;14.60;36.10;;;;;;5074364;28;20059;-68
2020/12/08 08:49:21;;;;;;;1.25;1.15;;;14.40;37.00;;;;;;5069450;28;20070;-68
2020/12/08 08:51:49;;;;;;;1.33;1.23;;;14.20;37.20;;;;;;5076616;28;20073;-68
2020/12/08 08:54:17;;;;;;;3.72;1.50;;;14.10;37.50;;;;;;5075963;28;20032;-68
2020/12/08 08:56:44;;;;;;;2.10;1.50;;;14.00;37.60;;;;;;5071859;28;20029;-68
2020/12/08 08:59:11;;;;;;;1.98;1.10;;;13.70;38.20;;;;;;5075054;28;20032;-68
2020/12/08 09:01:37;;;;;;;2.40;1.42;;;13.60;38.10;;;;;;5074683;28;20014;-68
2020/12/08 09:04:04;;;;;;;4.22;1.35;;;13.50;37.90;;;;;;5073610;28;20498;-68
2020/12/08 09:06:30;;;;;;;1.95;1.77;;;13.40;38.20;;;;;;5083193;28;20016;-68
2020/12/08 09:08:59;;;;;;;5.05;1.33;;;13.20;38.80;;;;;;5074775;28;20020;-68
2020/12/08 09:11:27;;;;;;;1.92;1.60;;;13.10;39.00;;;;;;5072266;28;20021;-68
2020/12/08 09:13:55;;;;;;;1.95;1.60;;;13.00;39.00;;;;;;5072627;28;20466;-68
2020/12/08 09:16:24;;;;;;;2.95;1.92;;;13.00;39.10;;;;;;5079836;28;20029;-68
2020/12/08 09:18:51;;;;;;;1.75;1.65;;;12.90;39.00;;;;;;5071052;28;20025;-68
2020/12/08 09:21:18;;;;;;;2.15;1.83;;;12.80;38.70;;;;;;5075173;28;20315;-68
2020/12/08 09:23:44;;;;;;;3.17;1.60;;;12.90;38.50;;;;;;5066049;28;20031;-68
2020/12/08 09:26:11;;;;;;;1.55;1.45;;;12.70;39.20;;;;;;5073618;28;20091;-68
2020/12/08 09:28:38;;;;;;;3.63;1.80;;;12.60;39.50;;;;;;5074054;28;20020;-68
2020/12/08 09:31:04;;;;;;;3.60;1.80;;;12.70;38.90;;;;;;5081167;28;20370;-68
2020/12/08 09:33:31;;;;;;;2.67;1.75;;;12.60;39.30;;;;;;5069042;28;20120;-68
2020/12/08 09:35:58;;;;;;;3.00;1.65;;;12.60;39.10;;;;;;5072252;28;20028;-68
2020/12/08 09:38:24;;;;;;;1.60;1.50;;;12.50;40.00;;;;;;5074192;28;20028;-68
2020/12/08 09:40:51;;;;;;;2.53;1.60;;;12.40;40.30;;;;;;5074585;28;20036;-70
2020/12/08 09:43:17;;;;;;;3.17;2.45;;;12.40;39.80;;;;;;5074743;28;20446;-70
2020/12/08 09:45:43;;;;;;;1.90;1.73;;;12.40;40.10;;;;;;5074853;28;20098;-70
2020/12/08 09:48:10;;;;;;;1.60;1.48;;;12.40;40.10;;;;;;5074810;28;20028;-70
2020/12/08 09:50:36;;;;;;;2.42;1.85;;;12.40;40.10;;;;;;5073026;28;20028;-70
2020/12/08 09:53:03;;;;;;;2.70;1.98;;;12.30;39.80;;;;;;5067943;28;20025;-70
2020/12/08 09:55:29;;;;;;;1.80;1.30;;;12.40;39.50;;;;;;5071745;28;20465;-68
2020/12/08 09:57:56;;;;;;;2.95;1.42;;;12.50;39.50;;;;;;5073728;28;20108;-68
2020/12/08 10:00:22;;;;;;;3.45;1.58;;;12.50;39.40;;;;;;5073467;28;20032;-70
2020/12/08 10:02:49;;;;;;;3.35;1.30;;;12.50;39.60;;;;;;5074398;28;20056;-68
2020/12/08 10:05:15;;;;;;;1.55;1.45;;;12.60;39.40;;;;;;5074907;28;20094;-68
2020/12/08 10:07:42;;;;;;;1.60;1.50;;;12.70;39.20;;;;;;5075050;28;20021;-70
2020/12/08 10:10:09;;;;;;;1.85;1.40;;;12.70;39.30;;;;;;5074834;28;20515;-68
2020/12/08 10:12:35;;;;;;;3.10;1.60;;;12.80;39.30;;;;;;5072542;28;20028;-68
2020/12/08 10:15:03;;;;;;;3.53;1.40;;;12.80;39.10;;;;;;5074762;28;20024;-68
2020/12/08 10:17:29;;;;;;;2.08;1.42;;;12.90;39.00;;;;;;5068035;28;20170;-70
2020/12/08 10:19:56;;;;;;;3.42;1.27;;;12.90;39.00;;;;;;5068434;28;20025;-70
2020/12/08 10:22:22;;;;;;;1.88;1.50;;;12.80;39.20;;;;;;5074690;28;20033;-68
2020/12/08 10:24:48;;;;;;;3.38;1.30;;;12.80;39.70;;;;;;5075057;28;20078;-68
2020/12/08 10:27:15;;;;;;;3.92;1.20;;;12.70;39.90;;;;;;5075276;28;20032;-68
2020/12/08 10:29:41;;;;;;;1.35;1.25;;;12.70;40.50;;;;;;5074747;28;20016;-68
2020/12/08 10:32:08;;;;;;;1.60;1.50;;;12.60;40.00;;;;;;5073066;28;20119;-69
2020/12/08 10:34:34;;;;;;;1.40;1.30;;;12.50;40.30;;;;;;5071387;28;20410;-70
2020/12/08 10:37:01;;;;;;;1.35;1.25;;;12.40;40.10;;;;;;5066789;28;20428;-70
2020/12/08 10:42:03;;;;;;;3.78;1.73;;;12.40;39.90;;;;;;5368461;22;20141;-69
2020/12/08 10:44:29;;;;;;;4.97;1.75;;;12.20;40.80;;;;;;5088383;28;20452;-68
2020/12/08 10:46:55;;;;;;;1.30;1.20;;;12.30;39.60;;;;;;5078281;28;20020;-69
2020/12/08 10:49:22;;;;;;;2.45;1.63;;;12.40;39.30;;;;;;5074715;28;20047;-69
2020/12/08 10:51:51;;;;;;;2.50;1.88;;;12.50;40.00;;;;;;5074770;28;20028;-69
2020/12/08 10:54:18;;;;;;;2.22;1.58;;;12.30;39.80;;;;;;5074856;28;20056;-68
2020/12/08 10:56:44;;;;;;;3.20;1.40;;;12.60;39.40;;;;;;5075144;28;20031;-68
2020/12/08 10:59:11;;;;;;;2.70;1.50;;;12.60;39.10;;;;;;5075008;28;20103;-69
2020/12/08 11:01:37;;;;;;;1.73;1.38;;;12.50;39.40;;;;;;5074917;28;20436;-69
2020/12/08 11:04:04;;;;;;;1.40;1.30;;;12.50;39.50;;;;;;5074704;28;20041;-68
2020/12/08 11:06:31;;;;;;;2.88;1.40;;;12.50;39.40;;;;;;5074875;28;20049;-68
2020/12/08 11:08:58;;;;;;;4.85;2.13;;;12.80;39.10;;;;;;5071673;28;20036;-69
2020/12/08 11:11:28;;;;;;;4.88;1.83;;;13.00;38.80;;;;;;5066635;28;20089;-69
2020/12/08 11:13:58;;;;;;;1.15;1.15;;;13.00;38.50;;;;;;5065414;28;20016;-69
2020/12/08 11:16:26;;;;;;;1.83;1.50;;;13.10;38.50;;;;;;5074440;28;20017;-68
2020/12/08 11:18:53;;;;;;;1.52;1.42;;;13.10;38.50;;;;;;5074750;28;20028;-68
2020/12/08 11:21:27;;;;;;;3.17;1.55;;;13.40;38.10;;;;;;5074912;28;20021;-69
2020/12/08 11:23:57;;;;;;;1.35;1.25;;;13.30;38.00;;;;;;5073998;28;20043;-68
2020/12/08 11:26:24;;;;;;;2.22;1.20;;;13.10;38.90;;;;;;5074924;28;20361;-68
2020/12/08 11:28:52;;;;;;;1.40;1.30;;;13.00;39.00;;;;;;5071500;28;20052;-69
2020/12/08 11:31:19;;;;;;;1.60;1.48;;;12.90;38.90;;;;;;5063837;28;20020;-68
2020/12/08 11:33:46;;;;;;;3.05;1.60;;;12.90;38.90;;;;;;5074072;28;20095;-69
2020/12/08 11:36:13;;;;;;;1.60;1.50;;;13.00;38.60;;;;;;5074541;28;20345;-69
2020/12/08 11:38:40;;;;;;;3.78;1.58;;;13.10;38.50;;;;;;5073380;28;20059;-69
2020/12/08 11:41:06;;;;;;;1.40;1.30;;;13.10;38.70;;;;;;5073628;28;20028;-69
2020/12/08 11:43:36;;;;;;;1.80;1.70;;;13.10;38.60;;;;;;5077838;28;20024;-69
2020/12/08 11:46:03;;;;;;;1.88;1.58;;;13.30;38.30;;;;;;5078315;28;20028;-68
2020/12/08 11:48:30;;;;;;;1.65;1.20;;;13.20;38.30;;;;;;5078311;28;20465;-69
2020/12/08 11:50:57;;;;;;;1.75;1.50;;;13.10;38.40;;;;;;5078239;28;20365;-69
2020/12/08 11:53:24;;;;;;;3.45;1.92;;;13.20;38.30;;;;;;5078228;28;20024;-68
2020/12/08 11:55:51;;;;;;;2.35;1.58;;;13.10;38.30;;;;;;5076866;28;20053;-69
2020/12/08 11:58:18;;;;;;;7.93;1.73;;;13.30;38.10;;;;;;5078150;28;20082;-68
2020/12/08 12:00:45;;;;;;;1.50;1.40;;;13.30;38.00;;;;;;5077056;28;20032;-69
2020/12/08 12:03:11;;;;;;;1.38;1.30;;;13.20;38.10;;;;;;5078309;28;20099;-69
2020/12/08 12:05:37;;;;;;;1.23;1.23;;;13.30;38.20;;;;;;5078231;28;20032;-68
2020/12/08 12:08:05;;;;;;;6.18;1.58;;;13.10;38.20;;;;;;5077808;28;20017;-69
2020/12/08 12:10:32;;;;;;;1.48;1.38;;;13.00;38.40;;;;;;5077547;28;20130;-69
2020/12/08 12:12:58;;;;;;;5.05;1.80;;;12.80;38.50;;;;;;5077397;28;20052;-69
2020/12/08 12:15:25;;;;;;;1.65;1.55;;;12.70;38.80;;;;;;5077555;28;20449;-69
2020/12/08 12:17:51;;;;;;;1.80;1.42;;;12.60;39.30;;;;;;5077620;28;20053;-69
2020/12/08 12:20:18;;;;;;;2.15;1.33;;;12.50;39.30;;;;;;5077438;28;20025;-69
2020/12/08 12:22:44;;;;;;;1.60;1.50;;;12.50;39.40;;;;;;5077434;28;20131;-69
2020/12/08 12:25:11;;;;;;;3.00;1.30;;;12.40;39.60;;;;;;5077395;28;20086;-68
2020/12/08 12:27:37;;;;;;;4.20;1.70;;;12.20;40.90;;;;;;5067671;28;20354;-68
2020/12/08 12:30:04;;;;;;;3.65;1.83;;;12.20;39.90;;;;;;5069085;28;20037;-69
2020/12/08 12:32:30;;;;;;;2.25;2.05;;;12.10;40.30;;;;;;5076019;28;20028;-69
2020/12/08 12:34:57;;;;;;;11.38;1.83;;;11.90;40.70;;;;;;5077538;28;20111;-68
2020/12/08 12:37:24;;;;;;;1.70;1.60;;;11.90;40.10;;;;;;5076388;28;20025;-69
2020/12/08 12:39:50;;;;;;;1.75;1.65;;;11.90;39.90;;;;;;5077742;28;20025;-68
2020/12/08 12:42:18;;;;;;;2.20;2.00;;;12.00;39.90;;;;;;5077441;28;20028;-69
2020/12/08 12:44:45;;;;;;;1.52;1.42;;;11.80;40.90;;;;;;5077261;28;20047;-69
2020/12/08 12:47:12;;;;;;;1.60;1.48;;;11.70;40.80;;;;;;5077099;28;20028;-69
2020/12/08 12:49:39;;;;;;;1.60;1.50;;;11.80;40.30;;;;;;5077284;28;20035;-69
2020/12/08 12:52:06;;;;;;;3.70;1.70;;;11.90;40.30;;;;;;5077463;28;20028;-69